Time;durP1;ratioP1;P1;durP2;ratioP2;P2;SDS_P1;SDS_P2;PMS_P1;PMS_P2;Temp;Humidity;BMP_temperature;BMP_pressure;BME280_temperature;BME280_humidity;BME280_pressure;Samples;Min_cycle;Max_cycle;Signal;HPM_P1;HPM_P2
2021/05/10 00:01:23;;;;;;;4.23;3.17;;;15.00;99.90;;;;;;5090229;28;20513;-73
2021/05/10 00:03:50;;;;;;;5.10;3.50;;;14.80;99.90;;;;;;5090161;28;20470;-72
2021/05/10 00:06:16;;;;;;;4.33;3.53;;;14.70;99.90;;;;;;5090173;28;21248;-73
2021/05/10 00:08:43;;;;;;;6.20;3.30;;;14.50;99.90;;;;;;5090077;28;20474;-73
2021/05/10 00:11:10;;;;;;;5.50;3.03;;;14.70;99.90;;;;;;5090480;28;20438;-72
2021/05/10 00:13:41;;;;;;;5.07;3.00;;;14.70;99.90;;;;;;5090529;28;20529;-73
2021/05/10 00:16:08;;;;;;;4.00;3.07;;;14.80;99.90;;;;;;5090026;28;20474;-73
2021/05/10 00:18:35;;;;;;;3.77;3.33;;;14.70;99.90;;;;;;5090238;28;20875;-73
2021/05/10 00:21:01;;;;;;;4.27;3.17;;;14.70;99.90;;;;;;5090060;28;20560;-72
2021/05/10 00:23:27;;;;;;;6.20;3.60;;;14.70;99.90;;;;;;5089944;28;20468;-73
2021/05/10 00:25:54;;;;;;;5.90;3.43;;;14.90;99.90;;;;;;5089877;28;20541;-72
2021/05/10 00:28:20;;;;;;;3.90;3.13;;;14.90;99.90;;;;;;5090197;28;20537;-72
2021/05/10 00:30:47;;;;;;;9.57;3.50;;;15.00;99.90;;;;;;5090214;28;20438;-73
2021/05/10 00:33:14;;;;;;;4.80;3.23;;;15.10;99.90;;;;;;5090189;28;20456;-73
2021/05/10 00:35:40;;;;;;;8.70;3.87;;;15.00;99.90;;;;;;5089524;28;20470;-72
2021/05/10 00:38:07;;;;;;;4.90;3.93;;;15.10;99.90;;;;;;5089867;28;20478;-72
2021/05/10 00:40:34;;;;;;;5.97;4.23;;;15.10;99.90;;;;;;5090568;28;20527;-72
2021/05/10 00:43:01;;;;;;;9.20;4.30;;;15.20;99.90;;;;;;5093806;28;20445;-72
2021/05/10 00:45:29;;;;;;;5.00;3.77;;;15.10;99.90;;;;;;5093100;28;20561;-73
2021/05/10 00:47:56;;;;;;;5.07;3.57;;;15.10;99.90;;;;;;5093651;28;20442;-73
2021/05/10 00:50:23;;;;;;;3.93;2.80;;;15.00;99.90;;;;;;5093320;28;20528;-73
2021/05/10 00:52:50;;;;;;;4.20;3.73;;;14.90;99.90;;;;;;5093641;28;20436;-73
2021/05/10 00:55:17;;;;;;;4.67;3.70;;;14.80;99.90;;;;;;5093140;28;20462;-73
2021/05/10 00:57:47;;;;;;;5.37;3.27;;;14.80;99.90;;;;;;5093487;28;20438;-73
2021/05/10 01:00:15;;;;;;;5.37;3.60;;;14.70;99.90;;;;;;5093437;28;20802;-73
2021/05/10 01:02:44;;;;;;;3.93;3.53;;;14.50;99.90;;;;;;5093346;28;20445;-74
2021/05/10 01:05:13;;;;;;;4.03;3.63;;;14.40;99.90;;;;;;5092811;28;20462;-73
2021/05/10 01:07:40;;;;;;;4.33;3.70;;;14.30;99.90;;;;;;5093507;28;20448;-73
2021/05/10 01:10:10;;;;;;;4.60;3.50;;;14.20;99.90;;;;;;5093225;28;20482;-73
2021/05/10 01:12:37;;;;;;;4.20;3.80;;;14.20;99.90;;;;;;5093121;28;20525;-73
2021/05/10 01:15:06;;;;;;;8.40;4.47;;;14.20;99.90;;;;;;5092629;28;20502;-73
2021/05/10 01:17:34;;;;;;;5.20;4.20;;;14.10;99.90;;;;;;5092799;28;20511;-73
2021/05/10 01:20:01;;;;;;;4.60;3.73;;;14.10;99.90;;;;;;5092849;28;20878;-73
2021/05/10 01:22:40;;;;;;;4.33;3.77;;;14.00;99.90;;;;;;5093282;28;21192;-73
2021/05/10 01:25:09;;;;;;;5.40;3.80;;;13.90;99.90;;;;;;5092780;28;20466;-73
2021/05/10 01:27:36;;;;;;;6.13;3.90;;;13.70;99.90;;;;;;5093083;28;20489;-75
2021/05/10 01:30:05;;;;;;;4.53;4.10;;;13.60;99.90;;;;;;5092982;28;20489;-73
2021/05/10 01:32:31;;;;;;;6.90;3.13;;;13.50;99.90;;;;;;5093265;28;20438;-73
2021/05/10 01:34:58;;;;;;;6.20;3.77;;;13.50;99.90;;;;;;5092729;28;20474;-73
2021/05/10 01:37:24;;;;;;;5.67;3.43;;;13.40;99.90;;;;;;5092878;28;20519;-74
2021/05/10 01:39:51;;;;;;;5.63;3.90;;;13.30;99.90;;;;;;5092754;28;20484;-74
2021/05/10 01:42:18;;;;;;;4.50;3.23;;;13.10;99.90;;;;;;5092367;28;20490;-73
2021/05/10 01:44:45;;;;;;;4.50;3.40;;;13.20;99.90;;;;;;5091796;28;20498;-75
2021/05/10 01:47:11;;;;;;;8.03;3.87;;;13.20;99.90;;;;;;5092779;28;20521;-73
2021/05/10 01:49:37;;;;;;;4.30;3.30;;;13.30;99.90;;;;;;5092580;28;20596;-73
2021/05/10 01:52:04;;;;;;;4.13;3.10;;;13.30;99.90;;;;;;5091636;28;20562;-73
2021/05/10 01:54:30;;;;;;;4.07;3.50;;;13.30;99.90;;;;;;5092035;28;20596;-73
2021/05/10 01:56:58;;;;;;;4.80;3.80;;;13.30;99.90;;;;;;5092267;28;20485;-74
2021/05/10 01:59:24;;;;;;;7.50;4.60;;;13.20;99.90;;;;;;5092449;28;20577;-73
2021/05/10 02:01:50;;;;;;;4.67;3.50;;;13.00;99.90;;;;;;5092206;28;20478;-73
2021/05/10 02:04:17;;;;;;;5.23;3.77;;;13.00;99.90;;;;;;5092021;28;20883;-73
2021/05/10 02:06:43;;;;;;;4.33;3.07;;;12.90;99.90;;;;;;5092089;28;20447;-73
2021/05/10 02:09:10;;;;;;;4.20;3.20;;;12.80;99.90;;;;;;5091819;28;20978;-74
2021/05/10 02:11:36;;;;;;;5.67;3.40;;;12.70;99.90;;;;;;5091723;28;20533;-73
2021/05/10 02:14:03;;;;;;;5.37;3.60;;;12.70;99.90;;;;;;5091820;28;20485;-74
2021/05/10 02:16:31;;;;;;;4.00;3.20;;;12.50;99.90;;;;;;5091790;28;20439;-73
2021/05/10 02:18:59;;;;;;;6.63;3.33;;;12.50;99.90;;;;;;5091915;28;20453;-73
2021/05/10 02:21:30;;;;;;;5.10;3.50;;;12.40;99.90;;;;;;5091868;28;20571;-74
2021/05/10 02:23:57;;;;;;;4.33;2.90;;;12.50;99.90;;;;;;5091590;28;20470;-73
2021/05/10 02:26:23;;;;;;;3.57;3.10;;;12.50;99.90;;;;;;5091601;28;20442;-73
2021/05/10 02:28:49;;;;;;;5.10;3.37;;;12.60;99.90;;;;;;5091710;28;20551;-73
2021/05/10 02:31:16;;;;;;;4.27;2.90;;;12.70;99.90;;;;;;5091955;28;20466;-74
2021/05/10 02:33:43;;;;;;;5.13;2.97;;;12.80;99.90;;;;;;5091495;28;20468;-74
2021/05/10 02:36:09;;;;;;;6.50;3.23;;;12.90;99.90;;;;;;5091271;28;20959;-73
2021/05/10 02:38:35;;;;;;;4.93;4.07;;;13.00;99.90;;;;;;5091532;28;20446;-73
2021/05/10 02:41:02;;;;;;;5.20;3.77;;;13.00;99.90;;;;;;5091326;28;20604;-73
2021/05/10 02:43:28;;;;;;;5.53;3.30;;;13.00;99.90;;;;;;5091286;28;20537;-73
2021/05/10 02:45:55;;;;;;;4.00;3.00;;;12.90;99.90;;;;;;5091171;28;20444;-73
2021/05/10 02:48:23;;;;;;;4.07;3.00;;;12.90;99.90;;;;;;5091278;28;20878;-73
2021/05/10 02:50:50;;;;;;;5.33;3.83;;;12.90;99.90;;;;;;5091164;28;20541;-74
2021/05/10 02:53:16;;;;;;;5.53;3.60;;;13.00;99.90;;;;;;5091206;28;21019;-73
2021/05/10 02:55:43;;;;;;;4.20;3.20;;;13.00;99.90;;;;;;5091041;28;21024;-74
2021/05/10 02:58:09;;;;;;;3.60;3.17;;;13.10;99.90;;;;;;5091474;28;20446;-73
2021/05/10 03:00:36;;;;;;;4.90;3.00;;;13.10;99.90;;;;;;5090990;28;20531;-73
2021/05/10 03:03:03;;;;;;;4.40;3.80;;;13.10;99.90;;;;;;5091151;28;20881;-73
2021/05/10 03:05:30;;;;;;;4.30;3.73;;;13.10;99.90;;;;;;5090783;28;20505;-73
2021/05/10 03:07:58;;;;;;;6.47;3.60;;;13.00;99.90;;;;;;5090723;28;20469;-73
2021/05/10 03:10:25;;;;;;;5.30;3.87;;;13.00;99.90;;;;;;5091134;28;20486;-74
2021/05/10 03:12:53;;;;;;;4.43;3.67;;;13.00;99.90;;;;;;5091042;28;20453;-73
2021/05/10 03:15:20;;;;;;;3.73;3.27;;;12.90;99.90;;;;;;5090575;28;20470;-73
2021/05/10 03:17:49;;;;;;;8.37;4.27;;;12.80;99.90;;;;;;5090836;28;20449;-73
2021/05/10 03:20:17;;;;;;;5.30;3.77;;;12.70;99.90;;;;;;5090746;28;20477;-73
2021/05/10 03:22:44;;;;;;;7.17;4.50;;;12.80;99.90;;;;;;5090697;28;20541;-73
2021/05/10 03:25:12;;;;;;;8.63;4.57;;;12.90;99.90;;;;;;5090634;28;20494;-73
2021/05/10 03:27:41;;;;;;;6.60;4.80;;;13.00;99.90;;;;;;5090573;28;20477;-74
2021/05/10 03:30:10;;;;;;;4.70;4.20;;;12.90;99.90;;;;;;5090229;28;21005;-73
2021/05/10 03:32:37;;;;;;;5.20;4.70;;;12.70;99.90;;;;;;5090465;28;20485;-73
2021/05/10 03:35:05;;;;;;;8.73;4.67;;;12.60;99.90;;;;;;5089966;28;20562;-73
2021/05/10 03:37:31;;;;;;;8.03;5.70;;;12.60;99.90;;;;;;5090591;28;20438;-72
2021/05/10 03:39:59;;;;;;;7.67;6.23;;;12.70;99.90;;;;;;5090240;28;20446;-72
2021/05/10 03:42:25;;;;;;;8.70;6.07;;;13.00;99.90;;;;;;5090356;28;20480;-73
2021/05/10 03:44:52;;;;;;;6.70;5.57;;;13.10;99.90;;;;;;5089703;28;20502;-73
2021/05/10 03:47:19;;;;;;;6.90;5.67;;;13.00;99.90;;;;;;5090132;28;20479;-73
2021/05/10 03:49:45;;;;;;;11.67;5.80;;;13.00;99.90;;;;;;5089973;28;20450;-72
2021/05/10 03:52:12;;;;;;;6.87;5.50;;;13.00;99.90;;;;;;5089789;28;20450;-73
2021/05/10 03:54:39;;;;;;;8.90;6.30;;;13.10;99.90;;;;;;5090088;28;21006;-73
2021/05/10 03:57:06;;;;;;;7.17;5.90;;;13.10;99.90;;;;;;5090103;28;20446;-73
2021/05/10 03:59:33;;;;;;;6.13;5.40;;;13.20;99.90;;;;;;5090379;28;20484;-73
2021/05/10 04:02:02;;;;;;;7.63;5.50;;;13.30;99.90;;;;;;5090131;28;20474;-73
2021/05/10 04:04:34;;;;;;;8.77;5.40;;;13.40;99.90;;;;;;5089948;28;20470;-73
2021/05/10 04:07:20;;;;;;;5.73;4.50;;;13.50;99.90;;;;;;5090145;28;20820;-73
2021/05/10 04:10:03;;;;;;;7.23;5.03;;;13.50;99.90;;;;;;5090243;28;21023;-73
2021/05/10 04:15:15;;;;;;;6.70;5.40;;;13.50;99.90;;;;;;5089851;28;20450;-74
2021/05/10 04:17:41;;;;;;;6.00;4.40;;;13.50;99.90;;;;;;5093863;28;20920;-74
2021/05/10 04:20:09;;;;;;;6.70;4.13;;;13.60;99.90;;;;;;5093922;28;20490;-72
2021/05/10 04:22:35;;;;;;;5.83;4.80;;;13.60;99.90;;;;;;5093608;28;20593;-73
2021/05/10 04:25:02;;;;;;;6.60;4.33;;;13.70;99.90;;;;;;5093131;28;20458;-72
2021/05/10 04:27:29;;;;;;;5.20;4.43;;;13.80;99.90;;;;;;5093684;28;20952;-72
2021/05/10 04:29:56;;;;;;;8.03;4.07;;;13.90;99.90;;;;;;5093955;28;20524;-72
2021/05/10 04:32:22;;;;;;;5.73;4.00;;;14.10;99.90;;;;;;5093700;28;20537;-72
2021/05/10 04:34:48;;;;;;;9.83;4.27;;;14.30;99.90;;;;;;5093573;28;20562;-72
2021/05/10 04:37:15;;;;;;;5.07;4.47;;;14.50;99.90;;;;;;5093562;28;20525;-73
2021/05/10 04:39:42;;;;;;;8.33;3.97;;;14.60;99.90;;;;;;5093412;28;20442;-72
2021/05/10 04:42:08;;;;;;;8.40;3.87;;;14.70;99.90;;;;;;5093290;28;20513;-71
2021/05/10 04:44:35;;;;;;;5.77;4.77;;;14.80;99.90;;;;;;5093055;28;20533;-70
2021/05/10 04:47:01;;;;;;;8.00;4.30;;;14.90;99.90;;;;;;5093466;28;20879;-72
2021/05/10 04:49:28;;;;;;;10.70;4.90;;;14.90;99.90;;;;;;5093559;28;20453;-70
2021/05/10 04:51:54;;;;;;;9.73;4.83;;;14.90;99.90;;;;;;5093094;28;20461;-69
2021/05/10 04:54:20;;;;;;;6.37;4.70;;;14.80;99.90;;;;;;5092696;28;20468;-68
2021/05/10 04:56:47;;;;;;;6.63;4.60;;;14.80;99.90;;;;;;5093801;28;20438;-70
2021/05/10 04:59:13;;;;;;;8.63;5.87;;;14.80;99.90;;;;;;5093548;28;20546;-71
2021/05/10 05:01:40;;;;;;;8.87;5.80;;;14.70;99.90;;;;;;5093111;28;20585;-71
2021/05/10 05:04:07;;;;;;;7.93;5.80;;;14.60;99.90;;;;;;5093116;28;20600;-71
2021/05/10 05:06:33;;;;;;;6.60;4.43;;;14.60;99.90;;;;;;5093140;28;20515;-70
2021/05/10 05:08:59;;;;;;;8.87;4.93;;;14.70;99.90;;;;;;5110977;28;20524;-73
2021/05/10 05:11:26;;;;;;;7.00;4.17;;;14.90;99.90;;;;;;5106687;27;20520;-75
2021/05/10 05:13:52;;;;;;;12.27;5.00;;;15.10;99.90;;;;;;5102585;28;20465;-73
2021/05/10 05:16:18;;;;;;;7.00;4.67;;;15.30;99.90;;;;;;5111095;28;20545;-72
2021/05/10 05:18:46;;;;;;;7.27;4.80;;;15.60;99.90;;;;;;5110246;28;20548;-73
2021/05/10 05:21:12;;;;;;;4.93;4.40;;;15.70;99.90;;;;;;5108916;28;20533;-73
2021/05/10 05:23:38;;;;;;;7.90;5.30;;;15.60;99.90;;;;;;5110169;28;20497;-74
2021/05/10 05:26:05;;;;;;;6.30;5.00;;;15.70;99.90;;;;;;5110642;28;20465;-75
2021/05/10 05:28:33;;;;;;;7.23;5.20;;;15.70;99.90;;;;;;5110744;28;20533;-79
2021/05/10 05:31:00;;;;;;;7.83;4.40;;;15.70;99.90;;;;;;5111689;28;20437;-74
2021/05/10 05:33:28;;;;;;;7.20;4.83;;;15.70;99.90;;;;;;5112553;28;20818;-73
2021/05/10 05:35:55;;;;;;;9.03;5.03;;;15.80;99.90;;;;;;5110216;28;20536;-72
2021/05/10 05:38:22;;;;;;;6.20;4.90;;;15.90;99.90;;;;;;5111727;28;20554;-72
2021/05/10 05:40:49;;;;;;;9.63;5.23;;;16.00;99.90;;;;;;5121620;27;20571;-71
2021/05/10 05:43:15;;;;;;;9.70;5.60;;;16.10;99.90;;;;;;5130988;27;20583;-72
2021/05/10 05:45:43;;;;;;;10.57;5.50;;;16.00;99.90;;;;;;5130261;27;20488;-70
2021/05/10 05:48:11;;;;;;;12.00;6.07;;;16.00;99.90;;;;;;5125043;27;20441;-72
2021/05/10 05:50:39;;;;;;;10.13;6.57;;;16.10;99.90;;;;;;5112028;27;20932;-71
2021/05/10 05:53:14;;;;;;;11.90;6.87;;;16.20;99.90;;;;;;5110209;28;20822;-73
2021/05/10 05:55:41;;;;;;;9.23;6.17;;;16.50;99.90;;;;;;5110016;28;20461;-70
2021/05/10 05:58:07;;;;;;;7.00;5.70;;;16.70;99.90;;;;;;5109828;28;21168;-71
2021/05/10 06:00:34;;;;;;;8.20;5.00;;;16.90;99.90;;;;;;5110234;28;21069;-70
2021/05/10 06:03:00;;;;;;;6.60;5.33;;;16.90;99.90;;;;;;5108174;28;20936;-70
2021/05/10 06:05:26;;;;;;;10.20;5.27;;;17.10;99.90;;;;;;5107370;28;20465;-71
2021/05/10 06:07:53;;;;;;;9.10;5.83;;;17.30;99.90;;;;;;5107687;28;20469;-70
2021/05/10 06:10:23;;;;;;;10.60;5.30;;;17.40;99.90;;;;;;5120655;27;20557;-71
2021/05/10 06:12:51;;;;;;;13.13;5.47;;;17.40;99.90;;;;;;5130071;27;20463;-70
2021/05/10 06:15:19;;;;;;;12.40;5.47;;;17.30;99.90;;;;;;5129333;27;20460;-70
2021/05/10 06:17:46;;;;;;;10.23;5.30;;;17.20;99.90;;;;;;5130167;27;20481;-68
2021/05/10 06:20:14;;;;;;;5.70;4.03;;;17.10;99.90;;;;;;5130167;27;20441;-68
2021/05/10 06:22:41;;;;;;;10.20;4.80;;;17.10;99.90;;;;;;5129745;27;20476;-68
2021/05/10 06:25:10;;;;;;;5.07;3.57;;;17.10;99.90;;;;;;5102540;27;20461;-68
2021/05/10 06:27:38;;;;;;;8.93;3.80;;;17.20;99.90;;;;;;5107919;28;20434;-68
2021/05/10 06:30:05;;;;;;;5.90;4.27;;;17.40;99.90;;;;;;5107933;28;20452;-68
2021/05/10 06:32:32;;;;;;;9.60;5.47;;;17.70;99.90;;;;;;5108073;28;20452;-70
2021/05/10 06:34:58;;;;;;;7.03;5.00;;;17.90;99.90;;;;;;5106935;28;21019;-70
2021/05/10 06:37:29;;;;;;;6.67;4.40;;;18.20;99.90;;;;;;5108558;28;20445;-70
2021/05/10 06:39:56;;;;;;;9.80;4.80;;;18.20;99.90;;;;;;5107868;27;20473;-70
2021/05/10 06:42:23;;;;;;;6.37;3.80;;;18.40;99.90;;;;;;5108256;28;20468;-71
2021/05/10 06:44:50;;;;;;;9.07;4.17;;;18.60;99.90;;;;;;5107468;28;20469;-70
2021/05/10 06:47:17;;;;;;;8.93;3.70;;;18.90;99.90;;;;;;5107594;28;20441;-69
2021/05/10 06:49:43;;;;;;;5.03;3.77;;;19.30;99.90;;;;;;5107986;28;20445;-70
2021/05/10 06:52:10;;;;;;;6.33;3.00;;;19.60;99.90;;;;;;5107752;28;20532;-69
2021/05/10 06:54:36;;;;;;;5.17;2.90;;;19.80;99.90;;;;;;5107000;28;20465;-70
2021/05/10 06:57:03;;;;;;;5.87;3.47;;;20.10;99.90;;;;;;5107473;28;20978;-70
2021/05/10 06:59:29;;;;;;;6.43;4.00;;;20.30;99.90;;;;;;5108230;28;21264;-68
2021/05/10 07:01:56;;;;;;;7.60;3.57;;;20.50;99.90;;;;;;5107643;28;20588;-68
2021/05/10 07:04:23;;;;;;;6.23;2.90;;;20.80;99.90;;;;;;5107296;28;20872;-68
2021/05/10 07:06:49;;;;;;;5.33;3.37;;;21.10;99.90;;;;;;5107582;28;20943;-68
2021/05/10 07:09:15;;;;;;;6.83;3.60;;;21.40;99.90;;;;;;5107675;28;20443;-68
2021/05/10 07:11:42;;;;;;;6.87;3.50;;;21.70;99.90;;;;;;5107368;28;21034;-68
2021/05/10 07:14:08;;;;;;;9.30;3.70;;;21.90;99.90;;;;;;5106927;28;20469;-68
2021/05/10 07:16:34;;;;;;;6.57;3.63;;;21.90;99.90;;;;;;5107374;28;20529;-67
2021/05/10 07:19:02;;;;;;;4.53;2.87;;;21.90;99.90;;;;;;5107387;28;20528;-68
2021/05/10 07:21:28;;;;;;;5.43;3.17;;;21.90;99.90;;;;;;5107693;28;20473;-69
2021/05/10 07:23:55;;;;;;;7.50;2.80;;;21.90;99.90;;;;;;5106798;28;20510;-68
2021/05/10 07:26:21;;;;;;;6.40;3.23;;;21.90;99.90;;;;;;5106813;28;20441;-68
2021/05/10 07:28:48;;;;;;;7.47;3.30;;;21.70;99.90;;;;;;5107112;28;20463;-68
2021/05/10 07:31:14;;;;;;;8.00;2.90;;;21.60;99.90;;;;;;5106130;28;20457;-69
2021/05/10 07:33:41;;;;;;;6.43;2.70;;;21.80;99.30;;;;;;5107220;28;20536;-68
2021/05/10 07:36:09;;;;;;;3.53;2.50;;;21.90;98.90;;;;;;5106292;28;20536;-68
2021/05/10 07:38:36;;;;;;;5.43;2.93;;;22.20;98.70;;;;;;5107476;28;20449;-68
2021/05/10 07:41:02;;;;;;;3.97;2.73;;;22.20;98.60;;;;;;5106800;28;20521;-68
2021/05/10 07:43:28;;;;;;;3.53;2.33;;;22.10;98.20;;;;;;5107331;28;20489;-68
2021/05/10 07:45:55;;;;;;;3.07;2.57;;;21.70;98.10;;;;;;5106393;28;20441;-68
2021/05/10 07:48:21;;;;;;;4.30;2.30;;;21.40;99.00;;;;;;5107330;28;20528;-68
2021/05/10 07:50:48;;;;;;;4.70;2.43;;;21.30;99.50;;;;;;5108440;28;20445;-68
2021/05/10 07:53:15;;;;;;;3.33;2.40;;;21.20;99.90;;;;;;5111404;28;20526;-68
2021/05/10 07:55:41;;;;;;;4.97;2.53;;;21.40;99.60;;;;;;5110110;28;20476;-68
2021/05/10 07:58:08;;;;;;;5.57;2.93;;;21.60;99.40;;;;;;5111451;28;21033;-68
2021/05/10 08:00:36;;;;;;;5.37;2.80;;;21.60;98.90;;;;;;5111291;28;20524;-68
2021/05/10 08:03:07;;;;;;;5.33;2.60;;;21.70;99.60;;;;;;5110498;28;20436;-68
2021/05/10 08:05:34;;;;;;;5.97;2.57;;;21.70;99.60;;;;;;5110036;28;20460;-68
2021/05/10 08:08:00;;;;;;;4.10;2.63;;;21.80;99.90;;;;;;5111159;28;21260;-68
2021/05/10 08:10:28;;;;;;;4.13;2.53;;;22.10;99.90;;;;;;5111114;28;20497;-68
2021/05/10 08:12:54;;;;;;;5.70;2.53;;;22.20;99.00;;;;;;5111010;28;20520;-68
2021/05/10 08:15:21;;;;;;;5.07;2.90;;;22.50;99.00;;;;;;5109857;28;20562;-67
2021/05/10 08:17:47;;;;;;;8.43;3.13;;;22.20;98.50;;;;;;5110858;28;20542;-69
2021/05/10 08:20:14;;;;;;;5.47;2.50;;;22.00;98.90;;;;;;5110829;28;20556;-70
2021/05/10 08:22:40;;;;;;;3.90;2.30;;;21.90;99.60;;;;;;5110262;28;20476;-70
2021/05/10 08:25:07;;;;;;;4.30;2.40;;;21.80;98.90;;;;;;5109463;28;20452;-70
2021/05/10 08:27:35;;;;;;;4.43;2.17;;;22.00;99.20;;;;;;5110767;28;20943;-70
2021/05/10 08:30:03;;;;;;;5.20;2.30;;;22.30;99.10;;;;;;5110579;28;20453;-69
2021/05/10 08:32:30;;;;;;;3.50;2.03;;;22.50;98.40;;;;;;5110077;28;20441;-70
2021/05/10 08:34:56;;;;;;;4.73;2.90;;;22.80;97.50;;;;;;5110349;28;20492;-70
2021/05/10 08:37:23;;;;;;;4.17;3.10;;;22.80;96.90;;;;;;5111259;28;20968;-70
2021/05/10 08:39:49;;;;;;;6.20;2.33;;;22.70;96.90;;;;;;5111196;28;20896;-70
2021/05/10 08:42:16;;;;;;;3.93;2.30;;;22.60;96.90;;;;;;5110649;28;20512;-69
2021/05/10 08:44:44;;;;;;;5.30;2.60;;;22.30;97.30;;;;;;5109954;28;20461;-69
2021/05/10 08:47:10;;;;;;;4.53;2.73;;;22.00;97.80;;;;;;5110125;28;20541;-69
2021/05/10 08:49:37;;;;;;;3.23;2.20;;;21.70;98.20;;;;;;5110956;28;20486;-70
2021/05/10 08:52:04;;;;;;;4.50;2.53;;;21.50;98.70;;;;;;5110619;27;21019;-69
2021/05/10 08:54:31;;;;;;;4.53;2.33;;;21.30;99.20;;;;;;5109876;28;20500;-68
2021/05/10 08:57:00;;;;;;;6.07;2.60;;;21.20;99.80;;;;;;5110191;28;20499;-69
2021/05/10 08:59:27;;;;;;;4.90;2.47;;;21.30;99.70;;;;;;5110446;28;20448;-69
2021/05/10 09:01:58;;;;;;;3.80;2.30;;;21.50;99.80;;;;;;5110485;27;20480;-69
2021/05/10 09:04:29;;;;;;;3.53;2.57;;;21.70;99.60;;;;;;5109633;28;20500;-67
2021/05/10 09:07:10;;;;;;;5.40;2.80;;;22.10;99.00;;;;;;5110673;28;20445;-70
2021/05/10 09:09:50;;;;;;;6.30;3.10;;;22.00;98.70;;;;;;5110679;28;20460;-69
2021/05/10 09:12:17;;;;;;;4.10;2.97;;;21.80;99.30;;;;;;5109807;28;20440;-70
2021/05/10 09:14:43;;;;;;;5.47;2.87;;;21.60;99.50;;;;;;5109046;28;20533;-69
2021/05/10 09:17:10;;;;;;;10.43;2.80;;;21.50;99.70;;;;;;5110193;28;20520;-69
2021/05/10 09:19:45;;;;;;;4.87;3.20;;;21.60;99.60;;;;;;5109029;28;20484;-69
2021/05/10 09:22:11;;;;;;;5.77;2.60;;;21.80;99.90;;;;;;5110100;27;20511;-68
2021/05/10 09:24:45;;;;;;;4.73;2.17;;;21.80;99.60;;;;;;5109193;28;20968;-68
2021/05/10 09:27:21;;;;;;;3.70;2.80;;;21.80;98.70;;;;;;5109517;28;20441;-68
2021/05/10 09:29:48;;;;;;;5.03;2.33;;;21.70;98.70;;;;;;5110035;28;20470;-68
2021/05/10 09:32:29;;;;;;;2.50;2.00;;;21.60;99.40;;;;;;5109712;28;20452;-68
2021/05/10 09:35:25;;;;;;;6.10;2.37;;;21.70;99.70;;;;;;5108878;28;20543;-68
2021/05/10 09:38:09;;;;;;;3.53;2.20;;;21.60;98.80;;;;;;5110012;28;20449;-68
2021/05/10 09:40:42;;;;;;;4.40;2.40;;;21.70;99.50;;;;;;5109851;28;20447;-69
2021/05/10 09:43:09;;;;;;;3.40;1.60;;;22.00;99.00;;;;;;5110722;28;21192;-68
2021/05/10 09:45:43;;;;;;;4.73;2.00;;;22.20;98.20;;;;;;5110747;28;20536;-68
2021/05/10 09:48:13;;;;;;;4.30;1.70;;;22.50;98.10;;;;;;5109667;28;20493;-68
2021/05/10 09:50:42;;;;;;;4.53;1.50;;;22.50;97.40;;;;;;5110089;27;20860;-68
2021/05/10 09:53:12;;;;;;;2.20;1.40;;;22.70;96.20;;;;;;5109322;28;20449;-68
2021/05/10 09:55:48;;;;;;;3.93;1.50;;;23.10;95.50;;;;;;5108441;28;20462;-68
2021/05/10 09:58:19;;;;;;;3.30;1.37;;;23.00;96.30;;;;;;5109318;27;20548;-68
2021/05/10 10:00:46;;;;;;;3.47;1.60;;;23.00;96.40;;;;;;5109707;28;20476;-69
2021/05/10 10:03:31;;;;;;;3.50;1.47;;;22.90;95.80;;;;;;5109427;28;20571;-68
2021/05/10 10:06:00;;;;;;;3.60;1.27;;;23.10;94.90;;;;;;5108188;28;20453;-69
2021/05/10 10:08:27;;;;;;;2.37;1.20;;;22.80;95.50;;;;;;5109803;28;20441;-70
2021/05/10 10:10:54;;;;;;;3.70;1.50;;;22.80;95.40;;;;;;5109345;28;20582;-69
2021/05/10 10:13:20;;;;;;;2.53;1.30;;;22.30;95.00;;;;;;5108846;28;20477;-68
2021/05/10 10:15:48;;;;;;;2.67;1.10;;;21.80;95.60;;;;;;5108552;28;20536;-70
2021/05/10 10:18:19;;;;;;;3.43;1.20;;;21.50;96.30;;;;;;5109107;28;20979;-70
2021/05/10 10:20:47;;;;;;;2.23;1.17;;;21.50;97.00;;;;;;5107461;27;20921;-69
2021/05/10 10:23:15;;;;;;;3.00;1.30;;;21.30;97.30;;;;;;5108777;27;20497;-71
2021/05/10 10:25:42;;;;;;;2.50;1.10;;;21.10;97.50;;;;;;5106918;28;20457;-71
2021/05/10 10:28:09;;;;;;;2.67;1.20;;;21.30;97.90;;;;;;5118982;27;20535;-70
2021/05/10 10:30:41;;;;;;;3.33;1.17;;;21.50;97.80;;;;;;5111332;27;20468;-70
2021/05/10 10:33:11;;;;;;;3.70;1.50;;;21.80;97.80;;;;;;5108468;28;20474;-70
2021/05/10 10:35:43;;;;;;;2.60;1.37;;;21.90;97.00;;;;;;5107120;28;20454;-68
2021/05/10 10:38:10;;;;;;;2.60;1.17;;;21.70;97.00;;;;;;5108627;28;20469;-70
2021/05/10 10:40:37;;;;;;;2.37;1.27;;;21.50;97.90;;;;;;5108994;28;20528;-68
2021/05/10 10:43:23;;;;;;;2.17;1.10;;;21.20;97.70;;;;;;5108694;28;21323;-68
2021/05/10 10:46:24;;;;;;;2.90;1.10;;;21.30;97.90;;;;;;5108757;28;21011;-68
2021/05/10 10:48:52;;;;;;;3.10;1.00;;;21.30;97.60;;;;;;5104520;28;20453;-70
2021/05/10 10:51:19;;;;;;;5.03;1.40;;;21.30;98.40;;;;;;5108780;28;20476;-69
2021/05/10 10:53:48;;;;;;;3.27;1.47;;;21.50;97.90;;;;;;5108772;28;20468;-69
2021/05/10 10:56:15;;;;;;;2.23;1.30;;;21.80;97.60;;;;;;5108537;27;20480;-69
2021/05/10 10:58:44;;;;;;;3.60;1.27;;;21.70;97.50;;;;;;5108659;28;20575;-70
2021/05/10 11:01:13;;;;;;;2.50;1.10;;;21.70;97.20;;;;;;5108313;28;20999;-68
2021/05/10 11:03:40;;;;;;;2.47;1.20;;;21.60;97.60;;;;;;5108820;28;20460;-70
2021/05/10 11:06:07;;;;;;;5.07;1.67;;;21.50;97.50;;;;;;5108401;28;20437;-68
2021/05/10 11:08:52;;;;;;;6.07;1.37;;;21.40;98.30;;;;;;5108463;28;20460;-68
2021/05/10 11:11:39;;;;;;;9.90;2.53;;;21.60;97.90;;;;;;5108457;28;21021;-68
2021/05/10 11:14:06;;;;;;;10.33;2.47;;;21.60;97.40;;;;;;5107050;28;20507;-70
2021/05/10 11:16:51;;;;;;;9.67;1.93;;;21.40;97.70;;;;;;5108395;28;20437;-67
2021/05/10 11:19:34;;;;;;;6.60;1.13;;;21.30;97.50;;;;;;5105137;28;20449;-68
2021/05/10 11:22:02;;;;;;;3.47;1.50;;;21.10;97.60;;;;;;5099550;28;20507;-69
2021/05/10 11:24:32;;;;;;;20.33;2.90;;;20.90;97.30;;;;;;5108160;28;20983;-69
2021/05/10 11:27:00;;;;;;;3.37;1.40;;;20.70;97.60;;;;;;5103865;28;20514;-71
2021/05/10 11:29:49;;;;;;;3.57;1.10;;;20.40;98.70;;;;;;5109110;28;20438;-70
2021/05/10 11:32:33;;;;;;;1.67;0.90;;;20.40;98.30;;;;;;5099554;28;20859;-71
2021/05/10 11:35:25;;;;;;;4.80;1.20;;;20.40;99.10;;;;;;5109043;27;21409;-71
2021/05/10 11:38:05;;;;;;;2.40;1.00;;;20.60;98.40;;;;;;5106185;28;20437;-69
2021/05/10 11:40:32;;;;;;;3.30;1.27;;;20.40;98.00;;;;;;5107599;28;20490;-69
2021/05/10 11:43:19;;;;;;;2.27;0.97;;;20.40;98.00;;;;;;5107332;28;20564;-68
2021/05/10 11:45:46;;;;;;;3.73;0.83;;;20.40;98.10;;;;;;5107783;28;21133;-69
2021/05/10 11:48:13;;;;;;;5.30;1.00;;;20.40;97.80;;;;;;5126755;28;20443;-68
2021/05/10 11:50:48;;;;;;;1.70;0.80;;;20.30;97.90;;;;;;5128191;27;20448;-70
2021/05/10 11:53:16;;;;;;;2.00;0.93;;;20.30;97.90;;;;;;5128049;28;20443;-69
2021/05/10 11:56:02;;;;;;;2.57;0.70;;;20.30;97.60;;;;;;5110405;28;20470;-69
2021/05/10 11:58:51;;;;;;;4.30;1.67;;;20.20;97.40;;;;;;5107866;28;20528;-69
2021/05/10 12:01:32;;;;;;;2.07;0.73;;;20.20;97.50;;;;;;5107563;28;20438;-71
2021/05/10 12:03:59;;;;;;;2.70;0.80;;;20.10;97.70;;;;;;5107448;28;20547;-69
2021/05/10 12:06:30;;;;;;;1.83;0.80;;;20.00;97.30;;;;;;5107701;28;20445;-69
2021/05/10 12:08:56;;;;;;;4.67;0.93;;;19.90;97.70;;;;;;5107849;28;20829;-71
2021/05/10 12:11:24;;;;;;;2.60;0.73;;;19.90;97.80;;;;;;5107861;28;20441;-69
2021/05/10 12:13:51;;;;;;;2.80;1.07;;;20.00;97.30;;;;;;5107324;28;20826;-70
2021/05/10 12:16:17;;;;;;;3.87;0.80;;;20.00;97.70;;;;;;5107639;28;20516;-70
2021/05/10 12:18:54;;;;;;;2.67;0.70;;;19.90;97.50;;;;;;5107841;28;20547;-68
2021/05/10 12:21:20;;;;;;;2.43;0.50;;;19.90;96.10;;;;;;5107182;28;20969;-69
2021/05/10 12:23:47;;;;;;;3.07;0.70;;;19.90;95.60;;;;;;5107022;28;20552;-69
2021/05/10 12:26:14;;;;;;;2.03;0.70;;;20.00;96.10;;;;;;5107199;28;20586;-70
2021/05/10 12:28:41;;;;;;;1.70;0.60;;;19.90;95.60;;;;;;5107355;28;20437;-69
2021/05/10 12:31:08;;;;;;;1.50;0.60;;;19.90;96.00;;;;;;5107592;28;20528;-68
2021/05/10 12:33:34;;;;;;;2.87;0.80;;;20.00;96.30;;;;;;5107409;28;20532;-68
2021/05/10 12:36:03;;;;;;;1.63;0.70;;;20.10;96.80;;;;;;5108049;28;20457;-69
2021/05/10 12:38:31;;;;;;;1.40;0.50;;;19.90;96.20;;;;;;5112213;28;21150;-68
2021/05/10 12:40:58;;;;;;;1.60;0.50;;;19.90;95.90;;;;;;5109779;28;21288;-69
2021/05/10 12:43:25;;;;;;;1.97;0.60;;;19.80;95.60;;;;;;5112454;28;20488;-69
2021/05/10 12:46:04;;;;;;;1.60;0.57;;;19.80;95.50;;;;;;5111609;28;20473;-69
2021/05/10 12:48:35;;;;;;;1.90;1.00;;;20.00;95.50;;;;;;5111798;28;20440;-70
2021/05/10 12:51:07;;;;;;;1.47;0.50;;;20.00;96.00;;;;;;5111835;28;20928;-69
2021/05/10 12:53:35;;;;;;;1.40;0.40;;;20.00;95.80;;;;;;5107466;28;20446;-69
2021/05/10 12:56:04;;;;;;;2.87;0.70;;;20.10;95.80;;;;;;5111716;28;20765;-69